Time;durP1;ratioP1;P1;durP2;ratioP2;P2;SDS_P1;SDS_P2;PMS_P1;PMS_P2;Temp;Humidity;BMP_temperature;BMP_pressure;BME280_temperature;BME280_humidity;BME280_pressure;Samples;Min_cycle;Max_cycle;Signal;HPM_P1;HPM_P2
2021/06/02 00:02:04;;;;;;;10.52;2.88;;;;;;;;;;5021364;28;20054;-40
2021/06/02 00:04:30;;;;;;;6.90;2.72;;;;;;;;;;5023640;28;20091;-40
2021/06/02 00:07:00;;;;;;;6.68;2.30;;;;;;;;;;5016907;28;20091;-39
2021/06/02 00:09:26;;;;;;;10.88;3.67;;;;;;;;;;5017761;28;20037;-40
2021/06/02 00:11:51;;;;;;;5.97;3.00;;;;;;;;;;5023121;28;20040;-41
2021/06/02 00:14:17;;;;;;;7.57;2.80;;;;;;;;;;5016993;28;20034;-41
2021/06/02 00:16:43;;;;;;;7.00;2.03;;;;;;;;;;5024192;28;20029;-40
2021/06/02 00:19:08;;;;;;;6.13;2.10;;;;;;;;;;5022214;28;20147;-41
2021/06/02 00:21:34;;;;;;;3.53;1.15;;;;;;;;;;5021095;28;20091;-41
2021/06/02 00:23:59;;;;;;;2.40;1.42;;;;;;;;;;5019223;28;20038;-40
2021/06/02 00:26:26;;;;;;;5.93;1.33;;;;;;;;;;5019637;28;20026;-40
2021/06/02 00:28:51;;;;;;;1.23;0.57;;;;;;;;;;5021064;28;20533;-40
2021/06/02 00:31:17;;;;;;;2.83;1.70;;;;;;;;;;5018416;28;20066;-41
2021/06/02 00:33:43;;;;;;;5.25;1.98;;;;;;;;;;5022001;28;20026;-40
2021/06/02 00:36:09;;;;;;;12.48;1.92;;;;;;;;;;5017079;28;20180;-40
2021/06/02 00:38:35;;;;;;;5.03;1.17;;;;;;;;;;5018467;28;20070;-40
2021/06/02 00:41:02;;;;;;;4.15;1.65;;;;;;;;;;5018061;28;20033;-40
2021/06/02 00:43:27;;;;;;;1.30;0.98;;;;;;;;;;5022131;28;20052;-40
2021/06/02 00:45:53;;;;;;;3.20;1.63;;;;;;;;;;5021486;28;20375;-40
2021/06/02 00:48:19;;;;;;;5.45;2.47;;;;;;;;;;5017800;28;20108;-40
2021/06/02 00:50:48;;;;;;;2.88;1.50;;;;;;;;;;5020137;28;20110;-41
2021/06/02 00:53:14;;;;;;;2.75;1.15;;;;;;;;;;5020663;28;20390;-40
2021/06/02 00:55:39;;;;;;;4.50;1.77;;;;;;;;;;5021437;28;20113;-41
2021/06/02 00:58:07;;;;;;;4.35;1.63;;;;;;;;;;5017176;28;20038;-41
2021/06/02 01:00:33;;;;;;;2.20;1.08;;;;;;;;;;5016959;28;20749;-38
2021/06/02 01:02:58;;;;;;;9.10;1.55;;;;;;;;;;5019113;28;20034;-39
2021/06/02 01:05:24;;;;;;;1.98;0.88;;;;;;;;;;5019342;28;20030;-38
2021/06/02 01:07:51;;;;;;;16.08;1.33;;;;;;;;;;5019498;28;20034;-38
2021/06/02 01:10:17;;;;;;;3.97;1.13;;;;;;;;;;5019769;28;20057;-39
2021/06/02 01:12:43;;;;;;;10.10;1.05;;;;;;;;;;5019181;28;20083;-39
2021/06/02 01:15:08;;;;;;;3.15;1.60;;;;;;;;;;5019935;28;20042;-39
2021/06/02 01:17:36;;;;;;;5.10;1.42;;;;;;;;;;5020020;28;20335;-40
2021/06/02 01:20:03;;;;;;;2.53;1.13;;;;;;;;;;5020645;28;20079;-39
2021/06/02 01:22:33;;;;;;;9.00;2.05;;;;;;;;;;5017320;28;20022;-40
2021/06/02 01:25:23;;;;;;;6.43;1.33;;;;;;;;;;5016158;28;20889;-40
2021/06/02 01:27:51;;;;;;;1.95;1.08;;;;;;;;;;5021062;28;20042;-40
2021/06/02 01:30:19;;;;;;;2.10;1.20;;;;;;;;;;5014568;28;20038;-39
2021/06/02 01:32:56;;;;;;;1.77;1.15;;;;;;;;;;5017179;28;20036;-39
2021/06/02 01:35:40;;;;;;;7.05;1.05;;;;;;;;;;5019121;28;20042;-40
2021/06/02 01:38:22;;;;;;;5.57;2.70;;;;;;;;;;5020912;28;20040;-39
2021/06/02 01:40:53;;;;;;;5.22;3.08;;;;;;;;;;5017425;28;20038;-40
2021/06/02 01:43:18;;;;;;;4.70;2.67;;;;;;;;;;5018963;28;20503;-40
2021/06/02 01:45:51;;;;;;;6.85;2.72;;;;;;;;;;5019600;28;20040;-40
2021/06/02 01:48:18;;;;;;;6.25;3.85;;;;;;;;;;5022733;28;20106;-39
2021/06/02 01:50:46;;;;;;;12.75;2.58;;;;;;;;;;5021472;28;20040;-42
2021/06/02 01:53:21;;;;;;;5.63;2.33;;;;;;;;;;5019930;28;20274;-39
2021/06/02 01:55:49;;;;;;;7.55;2.85;;;;;;;;;;5020375;28;20021;-41
2021/06/02 01:58:14;;;;;;;6.03;2.70;;;;;;;;;;5018927;28;20033;-40
2021/06/02 02:01:03;;;;;;;4.88;2.08;;;;;;;;;;5017983;28;20454;-40
2021/06/02 02:03:47;;;;;;;13.93;2.50;;;;;;;;;;5018959;28;20029;-40
2021/06/02 02:06:19;;;;;;;13.82;3.50;;;;;;;;;;5017840;28;20084;-41
2021/06/02 02:08:45;;;;;;;4.05;2.58;;;;;;;;;;5016039;28;20045;-40
2021/06/02 02:11:27;;;;;;;10.35;4.43;;;;;;;;;;5017310;28;20033;-41
2021/06/02 02:14:01;;;;;;;3.75;2.40;;;;;;;;;;5022011;28;20034;-41
2021/06/02 02:16:33;;;;;;;4.80;3.15;;;;;;;;;;5019265;28;20584;-41
2021/06/02 02:19:13;;;;;;;5.63;2.63;;;;;;;;;;5016085;28;20514;-42
2021/06/02 02:21:39;;;;;;;9.85;2.97;;;;;;;;;;5017507;28;20552;-40
2021/06/02 02:24:10;;;;;;;5.70;3.22;;;;;;;;;;5017202;28;20038;-41
2021/06/02 02:26:41;;;;;;;3.30;2.00;;;;;;;;;;5017650;28;20034;-40
2021/06/02 02:29:29;;;;;;;5.95;2.92;;;;;;;;;;5019614;28;20037;-39
2021/06/02 02:31:57;;;;;;;9.32;3.40;;;;;;;;;;5013386;28;20030;-39
2021/06/02 02:34:41;;;;;;;10.60;3.38;;;;;;;;;;5020161;28;20140;-38
2021/06/02 02:37:10;;;;;;;3.42;1.88;;;;;;;;;;5018980;28;20041;-39
2021/06/02 02:39:54;;;;;;;12.57;3.25;;;;;;;;;;5018544;28;20086;-39
2021/06/02 02:42:23;;;;;;;8.38;2.03;;;;;;;;;;5015169;28;20053;-40
2021/06/02 02:45:03;;;;;;;9.60;3.45;;;;;;;;;;5017087;28;20022;-39
2021/06/02 02:47:32;;;;;;;5.60;2.95;;;;;;;;;;5019121;28;20036;-40
2021/06/02 02:50:00;;;;;;;5.75;2.45;;;;;;;;;;5014173;28;20026;-39
2021/06/02 02:52:31;;;;;;;4.93;2.92;;;;;;;;;;5017008;28;20478;-40
2021/06/02 02:55:03;;;;;;;4.53;2.45;;;;;;;;;;5014448;28;20037;-40
2021/06/02 02:57:44;;;;;;;3.03;1.67;;;;;;;;;;5017197;28;20040;-40
2021/06/02 03:00:14;;;;;;;8.25;1.35;;;;;;;;;;5018472;28;20033;-40
2021/06/02 03:02:39;;;;;;;5.47;2.10;;;;;;;;;;5016760;28;20049;-41
2021/06/02 03:05:08;;;;;;;2.65;1.67;;;;;;;;;;5017926;28;20407;-40
2021/06/02 03:07:36;;;;;;;3.25;1.90;;;;;;;;;;5014332;28;20041;-40
2021/06/02 03:10:01;;;;;;;1.27;0.80;;;;;;;;;;5014298;28;20022;-41
2021/06/02 03:12:37;;;;;;;13.10;2.40;;;;;;;;;;5016608;28;20026;-41
2021/06/02 03:15:02;;;;;;;2.42;1.55;;;;;;;;;;5016920;28;20037;-40
2021/06/02 03:17:31;;;;;;;4.57;1.88;;;;;;;;;;5018255;28;20087;-41
2021/06/02 03:20:09;;;;;;;2.42;1.08;;;;;;;;;;5010708;28;20038;-40
2021/06/02 03:22:41;;;;;;;2.20;1.13;;;;;;;;;;5013622;28;20026;-39
2021/06/02 03:25:06;;;;;;;4.07;1.42;;;;;;;;;;5014957;28;20034;-39
2021/06/02 03:27:32;;;;;;;2.10;1.10;;;;;;;;;;5013858;28;20035;-40
2021/06/02 03:30:04;;;;;;;3.13;1.52;;;;;;;;;;5015907;28;20030;-40
2021/06/02 03:32:36;;;;;;;3.55;1.73;;;;;;;;;;5014977;28;20041;-41
2021/06/02 03:35:01;;;;;;;4.00;2.10;;;;;;;;;;5013811;28;20029;-40
2021/06/02 03:37:29;;;;;;;3.38;1.67;;;;;;;;;;5013353;28;20034;-40
2021/06/02 03:40:01;;;;;;;5.32;1.98;;;;;;;;;;5017539;28;20487;-40
2021/06/02 03:42:40;;;;;;;3.85;1.95;;;;;;;;;;5018141;28;20026;-41
2021/06/02 03:45:17;;;;;;;3.35;1.20;;;;;;;;;;5017832;28;20033;-41
2021/06/02 03:47:58;;;;;;;9.05;2.00;;;;;;;;;;5011856;28;20040;-40
2021/06/02 03:50:25;;;;;;;8.07;1.73;;;;;;;;;;5016056;28;20029;-40
2021/06/02 03:53:00;;;;;;;3.47;1.70;;;;;;;;;;5018451;28;20033;-40
2021/06/02 03:55:28;;;;;;;5.10;1.73;;;;;;;;;;5017571;28;20510;-41
2021/06/02 03:58:06;;;;;;;7.35;2.22;;;;;;;;;;5015897;28;20077;-40
2021/06/02 04:00:40;;;;;;;2.65;1.42;;;;;;;;;;5016608;28;20219;-41
2021/06/02 04:03:19;;;;;;;2.17;0.95;;;;;;;;;;5016559;28;20112;-40
2021/06/02 04:06:01;;;;;;;2.58;1.33;;;;;;;;;;5016359;28;20030;-39
2021/06/02 04:08:32;;;;;;;6.13;1.63;;;;;;;;;;5017401;28;20430;-40
2021/06/02 04:11:03;;;;;;;3.97;1.50;;;;;;;;;;5014074;28;20025;-39
2021/06/02 04:13:34;;;;;;;1.50;0.93;;;;;;;;;;5016386;28;20036;-39
2021/06/02 04:15:59;;;;;;;;;;;;;;;;;;5016583;28;20152;-40
2021/06/02 04:18:24;;;;;;;1.20;1.05;;;;;;;;;;5017771;28;20066;-39
2021/06/02 04:20:50;;;;;;;1.95;0.98;;;;;;;;;;5016157;28;20029;-39
2021/06/02 04:23:15;;;;;;;3.40;1.52;;;;;;;;;;5013855;28;20510;-39
2021/06/02 04:25:41;;;;;;;1.95;1.17;;;;;;;;;;5016312;28;20038;-39
2021/06/02 04:28:07;;;;;;;1.00;0.90;;;;;;;;;;5015529;28;20525;-40
2021/06/02 04:30:33;;;;;;;4.18;1.58;;;;;;;;;;5014754;28;20120;-40
2021/06/02 04:33:00;;;;;;;3.00;1.75;;;;;;;;;;5021384;28;20043;-39
2021/06/02 04:35:26;;;;;;;12.55;1.50;;;;;;;;;;5018610;28;20030;-42
2021/06/02 04:37:51;;;;;;;4.72;1.70;;;;;;;;;;5019963;28;20037;-39
2021/06/02 04:40:17;;;;;;;6.57;1.92;;;;;;;;;;5018177;28;20033;-39
2021/06/02 04:42:42;;;;;;;13.00;1.98;;;;;;;;;;5019763;28;20495;-39
2021/06/02 04:45:19;;;;;;;3.10;1.90;;;;;;;;;;5020058;28;20438;-41
2021/06/02 04:47:45;;;;;;;2.97;1.60;;;;;;;;;;5023759;28;20129;-39
2021/06/02 04:50:19;;;;;;;3.67;2.47;;;;;;;;;;5016164;28;20112;-40
2021/06/02 04:53:06;;;;;;;4.15;1.88;;;;;;;;;;5015572;28;20038;-39
2021/06/02 04:55:50;;;;;;;8.18;4.35;;;;;;;;;;5015858;28;20509;-39
2021/06/02 04:58:50;;;;;;;3.20;1.95;;;;;;;;;;5021068;28;20029;-39
2021/06/02 05:01:19;;;;;;;6.97;1.13;;;;;;;;;;4993838;28;20054;-41
2021/06/02 05:04:02;;;;;;;7.72;1.75;;;;;;;;;;5016065;28;20128;-40
2021/06/02 05:06:34;;;;;;;7.75;3.03;;;;;;;;;;5018038;28;20387;-40
2021/06/02 05:09:17;;;;;;;11.48;1.35;;;;;;;;;;5015616;28;20026;-40
2021/06/02 05:12:01;;;;;;;4.95;2.03;;;;;;;;;;5018901;28;20121;-40
2021/06/02 05:14:45;;;;;;;2.65;1.10;;;;;;;;;;5019946;28;20077;-40
2021/06/02 05:17:25;;;;;;;4.28;1.95;;;;;;;;;;5020189;28;20029;-40
2021/06/02 05:23:28;;;;;;;9.77;2.75;;;;;;;;;;4997117;28;20072;-39
2021/06/02 05:26:20;;;;;;;3.42;0.88;;;;;;;;;;5017991;28;20038;-40
2021/06/02 05:28:45;;;;;;;4.03;2.95;;;;;;;;;;5003460;28;20038;-41
2021/06/02 05:31:29;;;;;;;3.28;2.00;;;;;;;;;;5019518;28;20087;-40
2021/06/02 05:33:54;;;;;;;6.10;2.25;;;;;;;;;;5019737;28;20030;-41
2021/06/02 05:36:25;;;;;;;10.65;2.88;;;;;;;;;;5015363;28;20025;-43
2021/06/02 05:38:50;;;;;;;;;;;;;;;;;;5017932;28;20022;-43
2021/06/02 05:41:25;;;;;;;8.77;1.88;;;;;;;;;;5016688;28;19936;-43
2021/06/02 05:44:08;;;;;;;3.05;1.42;;;;;;;;;;5018769;28;20143;-41
2021/06/02 05:46:52;;;;;;;21.55;5.20;;;;;;;;;;5015562;28;20383;-40
2021/06/02 05:49:36;;;;;;;6.82;1.90;;;;;;;;;;5017049;28;20041;-41
2021/06/02 05:52:10;;;;;;;5.45;2.95;;;;;;;;;;5016373;28;20391;-42
2021/06/02 05:54:51;;;;;;;6.15;2.25;;;;;;;;;;5020544;28;20044;-42
2021/06/02 05:57:35;;;;;;;6.20;3.23;;;;;;;;;;5019432;28;20140;-41
2021/06/02 06:00:18;;;;;;;7.30;5.85;;;;;;;;;;5017135;28;20668;-41
2021/06/02 06:02:46;;;;;;;7.80;1.98;;;;;;;;;;5018757;28;20188;-42
2021/06/02 06:05:24;;;;;;;5.75;2.25;;;;;;;;;;5016371;28;20034;-41
2021/06/02 06:08:08;;;;;;;11.23;2.78;;;;;;;;;;5019621;28;20026;-41
2021/06/02 06:10:59;;;;;;;8.32;3.63;;;;;;;;;;5019207;28;20017;-40
2021/06/02 06:13:33;;;;;;;14.32;4.53;;;;;;;;;;5018592;28;20025;-41
2021/06/02 06:16:17;;;;;;;13.75;3.92;;;;;;;;;;5015446;28;20038;-41
2021/06/02 06:18:54;;;;;;;7.13;4.75;;;;;;;;;;5017117;28;20042;-41
2021/06/02 06:21:22;;;;;;;32.22;3.70;;;;;;;;;;5019877;28;20026;-41
2021/06/02 06:24:00;;;;;;;1.88;1.67;;;;;;;;;;5016797;28;20101;-48
2021/06/02 06:26:34;;;;;;;4.22;2.25;;;;;;;;;;5014840;28;20040;-43
2021/06/02 06:29:09;;;;;;;4.07;1.92;;;;;;;;;;5015441;28;20060;-44
2021/06/02 06:31:37;;;;;;;4.03;2.40;;;;;;;;;;5014446;28;20037;-44
2021/06/02 06:34:08;;;;;;;7.53;3.58;;;;;;;;;;5020347;28;20095;-43
2021/06/02 06:36:34;;;;;;;4.13;2.30;;;;;;;;;;5017052;28;20398;-43
2021/06/02 06:39:14;;;;;;;10.10;4.93;;;;;;;;;;5020762;28;20112;-45
2021/06/02 06:41:40;;;;;;;12.38;3.63;;;;;;;;;;5016978;28;20111;-42
2021/06/02 06:44:05;;;;;;;5.45;2.40;;;;;;;;;;5017802;28;20077;-43
2021/06/02 06:46:31;;;;;;;3.60;1.95;;;;;;;;;;5013430;28;20029;-43
2021/06/02 06:48:58;;;;;;;9.40;2.50;;;;;;;;;;5020351;28;20030;-43
2021/06/02 06:51:25;;;;;;;9.30;3.35;;;;;;;;;;5020906;28;20037;-43
2021/06/02 06:53:52;;;;;;;10.13;3.17;;;;;;;;;;5010983;28;20045;-43
2021/06/02 06:56:18;;;;;;;5.95;4.15;;;;;;;;;;5013197;28;20033;-43
2021/06/02 06:58:44;;;;;;;12.45;3.40;;;;;;;;;;5015546;28;20034;-41
2021/06/02 07:01:10;;;;;;;9.40;2.08;;;;;;;;;;5015840;28;20053;-43
2021/06/02 07:03:36;;;;;;;16.70;2.67;;;;;;;;;;5013432;28;20029;-43
2021/06/02 07:06:04;;;;;;;24.25;6.75;;;;;;;;;;5018138;28;20022;-37
2021/06/02 07:08:30;;;;;;;7.70;2.85;;;;;;;;;;5017817;28;20061;-36
2021/06/02 07:10:58;;;;;;;7.65;2.80;;;;;;;;;;5018102;28;20502;-36
2021/06/02 07:13:24;;;;;;;20.23;10.52;;;;;;;;;;5016460;28;20111;-36
2021/06/02 07:15:50;;;;;;;11.85;3.25;;;;;;;;;;5015627;28;20082;-36
2021/06/02 07:18:19;;;;;;;35.53;5.13;;;;;;;;;;5015392;28;20033;-36
2021/06/02 07:20:44;;;;;;;16.38;4.00;;;;;;;;;;5015063;28;20029;-36
2021/06/02 07:23:10;;;;;;;14.55;4.85;;;;;;;;;;5017089;28;20525;-36
2021/06/02 07:25:35;;;;;;;6.40;3.63;;;;;;;;;;5019837;28;20399;-36
2021/06/02 07:28:03;;;;;;;19.17;4.70;;;;;;;;;;5016468;28;20029;-36
2021/06/02 07:30:29;;;;;;;11.13;4.43;;;;;;;;;;5015777;28;20116;-36
2021/06/02 07:32:55;;;;;;;10.05;3.55;;;;;;;;;;5017116;28;20487;-36
2021/06/02 07:35:20;;;;;;;6.75;2.90;;;;;;;;;;5016262;28;20667;-36
2021/06/02 07:37:45;;;;;;;9.13;3.75;;;;;;;;;;5017049;28;20034;-35
2021/06/02 07:40:11;;;;;;;4.15;1.60;;;;;;;;;;5016708;28;20021;-35
2021/06/02 07:42:36;;;;;;;13.05;4.85;;;;;;;;;;5016553;28;20025;-35
2021/06/02 07:45:03;;;;;;;8.98;4.82;;;;;;;;;;5016575;28;20794;-35
2021/06/02 07:47:28;;;;;;;16.25;4.63;;;;;;;;;;5017796;28;20026;-35
2021/06/02 07:49:54;;;;;;;8.38;4.22;;;;;;;;;;5021210;28;20125;-36
2021/06/02 07:52:19;;;;;;;19.00;4.85;;;;;;;;;;5013399;28;20064;-35
2021/06/02 07:54:44;;;;;;;8.90;4.28;;;;;;;;;;5016923;28;20128;-36
2021/06/02 07:57:10;;;;;;;8.68;4.00;;;;;;;;;;5015246;28;20026;-36
2021/06/02 07:59:35;;;;;;;12.32;5.18;;;;;;;;;;5016822;28;20040;-35
2021/06/02 08:02:03;;;;;;;10.23;4.03;;;;;;;;;;5017671;28;20053;-35
2021/06/02 08:04:32;;;;;;;5.53;4.25;;;;;;;;;;5016588;28;20022;-34
2021/06/02 08:06:57;;;;;;;21.98;4.32;;;;;;;;;;5018167;28;20482;-35
2021/06/02 08:09:23;;;;;;;15.55;4.38;;;;;;;;;;5022058;28;20041;-37
2021/06/02 08:11:48;;;;;;;11.73;4.47;;;;;;;;;;5021518;28;20057;-35
2021/06/02 08:14:15;;;;;;;6.97;3.05;;;;;;;;;;5020805;28;20068;-36
2021/06/02 08:16:40;;;;;;;14.35;5.15;;;;;;;;;;5018398;28;20904;-37
2021/06/02 08:19:06;;;;;;;12.50;4.15;;;;;;;;;;5020661;28;20140;-37
2021/06/02 08:21:32;;;;;;;11.32;5.68;;;;;;;;;;5020476;28;20034;-35
2021/06/02 08:23:57;;;;;;;2.58;1.95;;;;;;;;;;5023699;28;20614;-35
2021/06/02 08:26:22;;;;;;;11.02;4.22;;;;;;;;;;5021231;28;20046;-38
2021/06/02 08:28:48;;;;;;;5.45;3.17;;;;;;;;;;5020803;28;20052;-35
2021/06/02 08:31:13;;;;;;;10.70;3.33;;;;;;;;;;5019924;28;20145;-36
2021/06/02 08:33:38;;;;;;;12.50;4.45;;;;;;;;;;5020468;28;20051;-36
2021/06/02 08:36:04;;;;;;;5.55;2.90;;;;;;;;;;5015998;28;20042;-36
2021/06/02 08:38:29;;;;;;;7.65;2.88;;;;;;;;;;5019987;28;20033;-36
2021/06/02 08:40:55;;;;;;;13.52;3.30;;;;;;;;;;5018237;28;20040;-35
2021/06/02 08:43:20;;;;;;;7.30;2.92;;;;;;;;;;5017202;28;20021;-36
2021/06/02 08:45:47;;;;;;;4.95;3.25;;;;;;;;;;5019163;28;20065;-38
2021/06/02 08:48:12;;;;;;;16.52;2.92;;;;;;;;;;5017793;28;20037;-37
2021/06/02 08:50:38;;;;;;;13.48;2.88;;;;;;;;;;5021561;28;20045;-35
2021/06/02 08:53:03;;;;;;;9.90;3.90;;;;;;;;;;5018558;28;20545;-35
2021/06/02 08:55:28;;;;;;;9.20;4.38;;;;;;;;;;5021192;28;20481;-35
2021/06/02 08:57:54;;;;;;;11.35;3.50;;;;;;;;;;5020596;28;20033;-35
2021/06/02 09:00:21;;;;;;;10.18;2.97;;;;;;;;;;5022364;28;20036;-35
2021/06/02 09:02:46;;;;;;;9.73;3.30;;;;;;;;;;5020061;28;20053;-36
2021/06/02 09:05:12;;;;;;;5.47;3.38;;;;;;;;;;5020589;28;20519;-35
2021/06/02 09:07:39;;;;;;;3.95;1.77;;;;;;;;;;5021492;28;20029;-36
2021/06/02 09:10:05;;;;;;;12.68;3.60;;;;;;;;;;5020209;28;20033;-36
2021/06/02 09:12:32;;;;;;;10.93;3.42;;;;;;;;;;5019248;28;20495;-35
2021/06/02 09:15:07;;;;;;;6.53;3.53;;;;;;;;;;5017631;28;20113;-35
2021/06/02 09:17:45;;;;;;;5.10;2.47;;;;;;;;;;5019447;28;20040;-36
2021/06/02 09:20:11;;;;;;;4.28;2.50;;;;;;;;;;5015767;28;20030;-36
2021/06/02 09:22:36;;;;;;;8.20;4.47;;;;;;;;;;5004634;28;20120;-35
2021/06/02 09:25:03;;;;;;;9.88;2.17;;;;;;;;;;5020974;28;20037;-35
2021/06/02 09:27:50;;;;;;;4.35;2.92;;;;;;;;;;5001348;28;20075;-37
2021/06/02 09:30:17;;;;;;;2.00;1.77;;;;;;;;;;5017364;28;20045;-36
2021/06/02 09:32:47;;;;;;;4.03;2.90;;;;;;;;;;5016636;28;20231;-35
2021/06/02 09:35:13;;;;;;;4.50;2.42;;;;;;;;;;5021971;28;20490;-36
2021/06/02 09:37:48;;;;;;;8.77;2.65;;;;;;;;;;5022177;28;20614;-36
2021/06/02 09:40:42;;;;;;;13.82;4.15;;;;;;;;;;5019318;28;20038;-36
2021/06/02 09:43:08;;;;;;;6.47;2.22;;;;;;;;;;5012786;28;20029;-36
2021/06/02 09:45:34;;;;;;;14.90;2.42;;;;;;;;;;5016864;28;20527;-36
2021/06/02 09:48:05;;;;;;;5.53;3.10;;;;;;;;;;5017756;28;20029;-36
2021/06/02 09:50:35;;;;;;;10.32;1.80;;;;;;;;;;5020135;28;20030;-37
2021/06/02 09:53:07;;;;;;;10.07;1.50;;;;;;;;;;5018136;28;20524;-36
2021/06/02 09:55:39;;;;;;;9.93;2.65;;;;;;;;;;5020024;28;20060;-36
2021/06/02 09:58:05;;;;;;;7.57;2.88;;;;;;;;;;5017397;28;20104;-35
2021/06/02 10:00:31;;;;;;;15.45;3.15;;;;;;;;;;5014764;28;20128;-37
2021/06/02 10:03:00;;;;;;;1.88;1.45;;;;;;;;;;5017858;28;20482;-36
2021/06/02 10:05:40;;;;;;;9.98;4.20;;;;;;;;;;5018301;28;20556;-35
2021/06/02 10:08:07;;;;;;;8.23;2.25;;;;;;;;;;5020601;28;20105;-37
2021/06/02 10:10:33;;;;;;;6.25;1.55;;;;;;;;;;5018500;28;20038;-36
2021/06/02 10:12:58;;;;;;;1.52;0.88;;;;;;;;;;5016013;28;20029;-36
2021/06/02 10:15:31;;;;;;;5.63;2.83;;;;;;;;;;5018237;28;20045;-36
2021/06/02 10:17:57;;;;;;;9.30;1.73;;;;;;;;;;5016460;28;20564;-36
2021/06/02 10:20:23;;;;;;;6.07;1.83;;;;;;;;;;5012632;28;20037;-36
2021/06/02 10:22:52;;;;;;;6.18;2.72;;;;;;;;;;5012325;28;20030;-36
2021/06/02 10:25:17;;;;;;;6.90;1.83;;;;;;;;;;5018171;28;20049;-35
2021/06/02 10:27:43;;;;;;;5.82;2.63;;;;;;;;;;5020804;28;20053;-36
2021/06/02 10:30:08;;;;;;;5.20;2.25;;;;;;;;;;5015822;28;20499;-37
2021/06/02 10:32:34;;;;;;;4.53;2.03;;;;;;;;;;5014273;28;20045;-36
2021/06/02 10:34:59;;;;;;;8.60;2.20;;;;;;;;;;5017669;28;20033;-36
2021/06/02 10:37:25;;;;;;;9.93;2.72;;;;;;;;;;5017988;28;20132;-37
2021/06/02 10:39:53;;;;;;;2.85;1.45;;;;;;;;;;5015531;28;20108;-34
2021/06/02 10:42:21;;;;;;;7.78;3.45;;;;;;;;;;5017156;28;20105;-34
2021/06/02 10:44:48;;;;;;;3.00;1.20;;;;;;;;;;5019207;28;20053;-34
2021/06/02 10:47:14;;;;;;;2.13;1.42;;;;;;;;;;5017968;28;20112;-34
2021/06/02 10:49:39;;;;;;;2.47;1.30;;;;;;;;;;5015858;28;20498;-36
2021/06/02 10:52:05;;;;;;;4.65;2.97;;;;;;;;;;5014976;28;20396;-36
2021/06/02 10:54:34;;;;;;;3.97;1.95;;;;;;;;;;5020605;28;20116;-37
2021/06/02 10:57:00;;;;;;;5.93;2.72;;;;;;;;;;5015787;28;20034;-37
2021/06/02 10:59:31;;;;;;;2.72;1.60;;;;;;;;;;5015706;28;20029;-39
2021/06/02 11:02:03;;;;;;;4.82;1.98;;;;;;;;;;5013931;28;20108;-36
2021/06/02 11:04:29;;;;;;;5.82;2.72;;;;;;;;;;5013390;28;20034;-37
2021/06/02 11:07:12;;;;;;;8.27;4.32;;;;;;;;;;5018203;28;20604;-36
2021/06/02 11:09:50;;;;;;;3.78;1.90;;;;;;;;;;5015639;28;20120;-36
2021/06/02 11:12:15;;;;;;;17.02;3.05;;;;;;;;;;5017355;28;20037;-36
2021/06/02 11:14:40;;;;;;;4.28;1.75;;;;;;;;;;5018114;28;20033;-36
2021/06/02 11:17:10;;;;;;;5.93;1.30;;;;;;;;;;5016031;28;20502;-37
2021/06/02 11:19:35;;;;;;;4.43;2.38;;;;;;;;;;5017627;28;20045;-37
2021/06/02 11:22:03;;;;;;;4.63;1.63;;;;;;;;;;5016937;28;20099;-37
2021/06/02 11:24:32;;;;;;;4.30;1.40;;;;;;;;;;5016278;28;20040;-37
2021/06/02 11:27:16;;;;;;;14.75;4.10;;;;;;;;;;5017417;28;20457;-37
2021/06/02 11:29:48;;;;;;;3.05;1.73;;;;;;;;;;5017790;28;20029;-36
2021/06/02 11:32:17;;;;;;;4.40;2.13;;;;;;;;;;5020863;28;20033;-45
2021/06/02 11:34:43;;;;;;;2.22;1.17;;;;;;;;;;5014496;28;20091;-37
2021/06/02 11:37:11;;;;;;;13.00;2.03;;;;;;;;;;5013924;28;20033;-37
2021/06/02 11:39:37;;;;;;;7.38;1.67;;;;;;;;;;5020162;28;20041;-37
2021/06/02 11:42:06;;;;;;;9.85;2.50;;;;;;;;;;5019987;28;20517;-38
2021/06/02 11:44:33;;;;;;;6.82;1.52;;;;;;;;;;5022070;28;20053;-37
2021/06/02 11:46:59;;;;;;;4.78;1.02;;;;;;;;;;5021989;28;20502;-37
2021/06/02 11:49:25;;;;;;;7.28;2.10;;;;;;;;;;5020672;28;20038;-37
2021/06/02 11:51:50;;;;;;;17.52;2.28;;;;;;;;;;5020706;28;20029;-38
2021/06/02 11:54:16;;;;;;;7.22;1.88;;;;;;;;;;5021436;28;20029;-37
2021/06/02 11:56:41;;;;;;;2.83;1.70;;;;;;;;;;5018354;28;20439;-37
2021/06/02 11:59:06;;;;;;;5.97;2.75;;;;;;;;;;5018163;28;20509;-37
2021/06/02 12:01:31;;;;;;;2.55;1.48;;;;;;;;;;5018824;28;20045;-38
2021/06/02 12:03:57;;;;;;;5.43;1.25;;;;;;;;;;5018972;28;20025;-37
2021/06/02 12:06:27;;;;;;;5.18;1.77;;;;;;;;;;5021742;28;20061;-38
2021/06/02 12:08:54;;;;;;;4.22;1.67;;;;;;;;;;5022072;28;20037;-38
2021/06/02 12:11:19;;;;;;;4.97;2.28;;;;;;;;;;5015712;28;20033;-37
2021/06/02 12:13:45;;;;;;;6.30;1.27;;;;;;;;;;5018124;28;20041;-37
2021/06/02 12:16:14;;;;;;;4.07;2.08;;;;;;;;;;5021107;28;20033;-37
2021/06/02 12:18:48;;;;;;;4.30;2.38;;;;;;;;;;5020390;28;20039;-37
2021/06/02 12:21:25;;;;;;;13.73;2.67;;;;;;;;;;5019632;28;20038;-37
2021/06/02 12:23:55;;;;;;;5.47;3.28;;;;;;;;;;5019451;28;20018;-37
2021/06/02 12:26:25;;;;;;;6.68;1.98;;;;;;;;;;5021268;28;20915;-37
2021/06/02 12:28:50;;;;;;;4.90;1.75;;;;;;;;;;5018774;28;20657;-37
2021/06/02 12:31:28;;;;;;;2.10;1.00;;;;;;;;;;5018223;28;20040;-37
2021/06/02 12:34:04;;;;;;;3.63;0.80;;;;;;;;;;5022246;28;20037;-37
2021/06/02 12:36:31;;;;;;;7.57;3.00;;;;;;;;;;5021550;28;20033;-37
2021/06/02 12:38:57;;;;;;;8.60;4.03;;;;;;;;;;5020373;28;20487;-37
2021/06/02 12:41:25;;;;;;;7.68;2.53;;;;;;;;;;5020229;28;20036;-38
2021/06/02 12:43:50;;;;;;;11.07;2.30;;;;;;;;;;5021072;28;20072;-40
2021/06/02 12:46:16;;;;;;;7.13;1.95;;;;;;;;;;5021252;28;20045;-37
2021/06/02 12:48:43;;;;;;;4.22;1.27;;;;;;;;;;5020486;28;20036;-37
2021/06/02 12:51:11;;;;;;;9.07;1.52;;;;;;;;;;5020061;28;20616;-37
2021/06/02 12:53:41;;;;;;;1.60;0.82;;;;;;;;;;5022195;28;20067;-37
2021/06/02 12:56:07;;;;;;;5.40;3.20;;;;;;;;;;5022754;28;20083;-37
2021/06/02 12:58:32;;;;;;;2.42;1.45;;;;;;;;;;5017068;28;20365;-37
2021/06/02 13:01:04;;;;;;;8.23;3.78;;;;;;;;;;5019431;28;20530;-38
2021/06/02 13:03:30;;;;;;;4.78;2.60;;;;;;;;;;5019872;28;20029;-38
2021/06/02 13:05:55;;;;;;;3.10;1.13;;;;;;;;;;5016487;28;20199;-36
2021/06/02 13:08:23;;;;;;;5.75;1.83;;;;;;;;;;5019920;28;20040;-36
2021/06/02 13:10:49;;;;;;;4.03;1.25;;;;;;;;;;5018498;28;20030;-36
2021/06/02 13:13:14;;;;;;;7.45;1.30;;;;;;;;;;5020823;28;20033;-37
2021/06/02 13:15:41;;;;;;;12.30;1.35;;;;;;;;;;5017048;28;20034;-35
2021/06/02 13:18:07;;;;;;;7.25;2.58;;;;;;;;;;5019861;28;20025;-36
2021/06/02 13:20:37;;;;;;;7.20;1.90;;;;;;;;;;5018868;28;20033;-35
2021/06/02 13:23:09;;;;;;;1.17;0.60;;;;;;;;;;5017472;28;20025;-36
2021/06/02 13:25:34;;;;;;;4.30;2.08;;;;;;;;;;5017885;28;20094;-35
2021/06/02 13:28:00;;;;;;;15.02;1.55;;;;;;;;;;5020169;28;20041;-34
2021/06/02 13:30:35;;;;;;;2.15;1.33;;;;;;;;;;5019643;28;20124;-35
2021/06/02 13:33:00;;;;;;;15.98;3.58;;;;;;;;;;5021846;28;20179;-35
2021/06/02 13:35:26;;;;;;;3.33;0.90;;;;;;;;;;5016752;28;20568;-34
2021/06/02 13:37:51;;;;;;;14.32;1.90;;;;;;;;;;5014907;28;20160;-34
2021/06/02 13:40:21;;;;;;;5.57;2.65;;;;;;;;;;5014645;28;20594;-34
2021/06/02 13:43:08;;;;;;;3.20;1.17;;;;;;;;;;5017097;28;20082;-34
2021/06/02 13:45:42;;;;;;;3.90;1.70;;;;;;;;;;5020023;28;20473;-34
2021/06/02 13:48:26;;;;;;;11.05;1.80;;;;;;;;;;5017598;28;20072;-33
2021/06/02 13:51:07;;;;;;;5.18;1.75;;;;;;;;;;5015444;28;20153;-34
2021/06/02 13:53:34;;;;;;;2.67;0.90;;;;;;;;;;5020861;28;20249;-34
2021/06/02 13:55:59;;;;;;;0.98;0.70;;;;;;;;;;5017647;28;20520;-34
2021/06/02 13:58:24;;;;;;;2.35;0.90;;;;;;;;;;5018475;28;20125;-34
2021/06/02 14:00:50;;;;;;;8.82;1.17;;;;;;;;;;5015476;28;20448;-34
2021/06/02 14:03:15;;;;;;;9.93;2.72;;;;;;;;;;5015480;28;20114;-34
2021/06/02 14:05:40;;;;;;;6.15;1.98;;;;;;;;;;5017906;28;20497;-44
2021/06/02 14:08:06;;;;;;;6.82;2.60;;;;;;;;;;5021629;28;20156;-45
2021/06/02 14:10:31;;;;;;;3.65;1.17;;;;;;;;;;5018503;28;20017;-45
2021/06/02 14:13:00;;;;;;;7.60;1.83;;;;;;;;;;5034916;28;20032;-45
2021/06/02 14:15:25;;;;;;;7.47;2.75;;;;;;;;;;5016249;28;20108;-46
2021/06/02 14:17:51;;;;;;;5.28;2.03;;;;;;;;;;5016970;28;20478;-46
2021/06/02 14:20:16;;;;;;;4.10;1.92;;;;;;;;;;5019783;28;20038;-46
2021/06/02 14:22:41;;;;;;;7.57;2.60;;;;;;;;;;5019398;28;20029;-46
2021/06/02 14:25:09;;;;;;;5.43;1.95;;;;;;;;;;5017624;28;20476;-45
2021/06/02 14:27:34;;;;;;;5.68;2.22;;;;;;;;;;5018897;28;20037;-45
2021/06/02 14:29:59;;;;;;;5.75;3.42;;;;;;;;;;5022228;28;20411;-46
2021/06/02 14:32:25;;;;;;;4.60;1.58;;;;;;;;;;5017323;28;20037;-46
2021/06/02 14:34:50;;;;;;;3.22;1.33;;;;;;;;;;5016765;28;20042;-45
2021/06/02 14:37:16;;;;;;;3.85;1.58;;;;;;;;;;5018584;28;20033;-45
2021/06/02 14:39:41;;;;;;;9.82;1.27;;;;;;;;;;5018412;28;20033;-45
2021/06/02 14:42:07;;;;;;;10.75;3.00;;;;;;;;;;5015453;28;20037;-46
2021/06/02 14:44:32;;;;;;;5.32;2.10;;;;;;;;;;5018889;28;20194;-46
2021/06/02 14:46:57;;;;;;;9.35;2.67;;;;;;;;;;5019333;28;20036;-46
2021/06/02 14:49:23;;;;;;;10.50;2.60;;;;;;;;;;5017608;28;20082;-45
2021/06/02 14:51:48;;;;;;;2.17;1.13;;;;;;;;;;5015278;28;20034;-45
2021/06/02 14:54:13;;;;;;;1.75;0.88;;;;;;;;;;5013362;28;20029;-46
2021/06/02 14:56:39;;;;;;;8.40;2.45;;;;;;;;;;5017560;28;20134;-46
2021/06/02 14:59:04;;;;;;;2.22;0.93;;;;;;;;;;5018362;28;20026;-46